Time;durP1;ratioP1;P1;durP2;ratioP2;P2;SDS_P1;SDS_P2;PMS_P1;PMS_P2;Temp;Humidity;BMP_temperature;BMP_pressure;BME280_temperature;BME280_humidity;BME280_pressure;Samples;Min_cycle;Max_cycle;Signal;HPM_P1;HPM_P2
2021/08/16 00:00:56;;;;;;;6.03;2.22;;;20.40;99.90;;;;;;4158164;28;20382;-73
2021/08/16 00:02:56;;;;;;;6.53;2.30;;;20.30;99.90;;;;;;4157894;28;20470;-73
2021/08/16 00:04:57;;;;;;;3.55;1.83;;;20.30;99.90;;;;;;4158549;28;20044;-73
2021/08/16 00:06:58;;;;;;;5.15;1.98;;;20.20;99.90;;;;;;4156195;28;20045;-73
2021/08/16 00:08:58;;;;;;;3.03;1.65;;;20.10;99.90;;;;;;4158270;28;20048;-73
2021/08/16 00:11:03;;;;;;;5.32;2.00;;;20.10;99.90;;;;;;4158577;28;20141;-73
2021/08/16 00:13:03;;;;;;;5.43;2.17;;;20.00;99.90;;;;;;4157622;28;20061;-73
2021/08/16 00:15:05;;;;;;;5.75;2.20;;;19.90;99.90;;;;;;4158569;28;20494;-73
2021/08/16 00:17:06;;;;;;;6.27;2.43;;;19.80;99.90;;;;;;4157212;28;20040;-73
2021/08/16 00:19:07;;;;;;;5.30;2.05;;;19.80;99.90;;;;;;4156161;28;20037;-72
2021/08/16 00:21:08;;;;;;;5.90;2.17;;;19.80;99.90;;;;;;4158363;28;20033;-72
2021/08/16 00:23:08;;;;;;;5.50;2.40;;;19.70;99.90;;;;;;4157788;28;20068;-73
2021/08/16 00:25:09;;;;;;;7.40;2.20;;;19.70;99.90;;;;;;4156891;28;20049;-73
2021/08/16 00:27:10;;;;;;;7.43;1.83;;;19.60;99.90;;;;;;4157033;28;20397;-72
2021/08/16 00:29:10;;;;;;;4.57;1.70;;;19.50;99.90;;;;;;4152790;28;20603;-73
2021/08/16 00:31:11;;;;;;;6.22;1.90;;;19.50;99.90;;;;;;4158392;28;20046;-73
2021/08/16 00:33:12;;;;;;;5.82;2.35;;;19.40;99.90;;;;;;4155933;28;20052;-73
2021/08/16 00:35:12;;;;;;;3.60;1.95;;;19.40;99.90;;;;;;4144243;28;20387;-72
2021/08/16 00:37:13;;;;;;;3.67;1.77;;;19.40;99.90;;;;;;4154380;28;20040;-73
2021/08/16 00:39:14;;;;;;;5.63;2.20;;;19.40;99.90;;;;;;4134020;28;20744;-73
2021/08/16 00:41:17;;;;;;;5.50;1.75;;;19.50;99.90;;;;;;4151429;28;20044;-73
2021/08/16 00:43:18;;;;;;;6.38;2.15;;;19.40;99.90;;;;;;4159725;28;20042;-72
2021/08/16 00:45:19;;;;;;;6.63;2.00;;;19.50;99.90;;;;;;4152676;28;20040;-72
2021/08/16 00:47:21;;;;;;;5.68;1.92;;;19.40;99.90;;;;;;4151271;28;20187;-73
2021/08/16 00:49:21;;;;;;;7.20;2.33;;;19.40;99.90;;;;;;4161214;28;20478;-73
2021/08/16 00:51:22;;;;;;;6.40;2.15;;;19.30;99.90;;;;;;4154925;28;20050;-72
2021/08/16 00:53:22;;;;;;;6.28;2.55;;;19.30;99.90;;;;;;4153208;28;20041;-72
2021/08/16 00:55:23;;;;;;;4.95;2.33;;;19.20;99.90;;;;;;4160388;28;20029;-72
2021/08/16 00:57:28;;;;;;;6.07;2.13;;;19.10;99.90;;;;;;4161249;28;20030;-72
2021/08/16 00:59:29;;;;;;;7.75;2.17;;;19.10;99.90;;;;;;4155397;28;20034;-73
2021/08/16 01:01:30;;;;;;;9.68;2.65;;;19.00;99.90;;;;;;4157589;28;20029;-73
2021/08/16 01:03:31;;;;;;;9.35;2.45;;;19.00;99.90;;;;;;4158136;28;20116;-73
2021/08/16 01:05:32;;;;;;;6.57;2.13;;;19.00;99.90;;;;;;4155476;28;20041;-73
2021/08/16 01:07:34;;;;;;;4.35;1.92;;;18.90;99.90;;;;;;4152658;28;20033;-72
2021/08/16 01:09:34;;;;;;;4.45;1.80;;;18.90;99.90;;;;;;4155031;28;20113;-73
2021/08/16 01:11:35;;;;;;;6.55;2.28;;;18.90;99.90;;;;;;4148636;28;20493;-73
2021/08/16 01:13:35;;;;;;;7.22;2.42;;;18.90;99.90;;;;;;4160507;28;20037;-72
2021/08/16 01:15:36;;;;;;;4.07;1.98;;;19.00;99.90;;;;;;4152405;28;20129;-72
2021/08/16 01:17:41;;;;;;;7.78;2.33;;;18.90;99.90;;;;;;4157022;28;20034;-73
2021/08/16 01:19:42;;;;;;;6.20;2.35;;;18.90;99.90;;;;;;4153322;28;20034;-73
2021/08/16 01:21:43;;;;;;;12.63;3.10;;;18.90;99.90;;;;;;4151392;28;20044;-72
2021/08/16 01:23:44;;;;;;;6.53;2.50;;;18.90;99.90;;;;;;4159051;28;20025;-72
2021/08/16 01:25:47;;;;;;;4.88;1.73;;;18.90;99.90;;;;;;4158989;28;20032;-73
2021/08/16 01:27:48;;;;;;;6.07;2.00;;;19.00;99.90;;;;;;4150855;28;20030;-73
2021/08/16 01:29:48;;;;;;;6.00;1.75;;;18.90;99.90;;;;;;4144304;28;20045;-72
2021/08/16 01:31:50;;;;;;;7.53;2.63;;;18.90;99.90;;;;;;4160113;28;20030;-73
2021/08/16 01:33:50;;;;;;;11.07;2.45;;;19.00;99.90;;;;;;4160362;28;20030;-73
2021/08/16 01:35:51;;;;;;;6.57;2.63;;;18.90;99.90;;;;;;4156290;28;20089;-73
2021/08/16 01:37:52;;;;;;;6.10;2.53;;;18.80;99.90;;;;;;4154430;28;20543;-72
2021/08/16 01:39:52;;;;;;;7.82;2.40;;;18.80;99.90;;;;;;4158085;28;20033;-73
2021/08/16 01:41:53;;;;;;;6.90;2.47;;;18.70;99.90;;;;;;4157330;28;20088;-72
2021/08/16 01:43:54;;;;;;;6.03;2.25;;;18.60;99.90;;;;;;4154767;28;20700;-73
2021/08/16 01:45:55;;;;;;;10.27;2.50;;;18.60;99.90;;;;;;4160096;28;20068;-73
2021/08/16 01:47:55;;;;;;;5.97;2.20;;;18.60;99.90;;;;;;4157362;28;20029;-73
2021/08/16 01:49:56;;;;;;;6.20;2.17;;;18.60;99.90;;;;;;4149654;28;20054;-73
2021/08/16 01:51:56;;;;;;;8.77;2.47;;;18.60;99.90;;;;;;4155888;28;20059;-73
2021/08/16 01:53:57;;;;;;;6.10;2.58;;;18.70;99.90;;;;;;4158500;28;20030;-72
2021/08/16 01:55:58;;;;;;;5.10;2.00;;;18.60;99.90;;;;;;4158479;28;20556;-73
2021/08/16 01:57:58;;;;;;;4.47;2.45;;;18.60;99.90;;;;;;4159097;28;20049;-73
2021/08/16 01:59:59;;;;;;;8.85;2.88;;;18.70;99.90;;;;;;4148036;28;20702;-73
2021/08/16 02:01:59;;;;;;;21.48;2.67;;;18.70;99.90;;;;;;4139585;28;20042;-73
2021/08/16 02:04:00;;;;;;;10.98;2.58;;;18.60;99.90;;;;;;4158006;28;20123;-72
2021/08/16 02:06:00;;;;;;;8.32;2.60;;;18.60;99.90;;;;;;4160132;28;20049;-73
2021/08/16 02:08:01;;;;;;;10.80;2.65;;;18.60;99.90;;;;;;4157686;28;20095;-72
2021/08/16 02:10:04;;;;;;;6.97;2.67;;;18.60;99.90;;;;;;4157584;28;20030;-72
2021/08/16 02:12:05;;;;;;;9.60;2.92;;;18.60;99.90;;;;;;4159787;28;20045;-73
2021/08/16 02:14:06;;;;;;;9.57;2.50;;;18.50;99.90;;;;;;4157701;28;20111;-73
2021/08/16 02:16:07;;;;;;;5.90;2.60;;;18.50;99.90;;;;;;4147425;28;20705;-73
2021/08/16 02:18:07;;;;;;;9.40;2.75;;;18.60;99.90;;;;;;4149473;28;20041;-73
2021/08/16 02:20:09;;;;;;;7.63;2.30;;;18.60;99.90;;;;;;4159654;28;20047;-73
2021/08/16 02:22:09;;;;;;;8.85;2.85;;;18.60;99.90;;;;;;4155101;28;20147;-73
2021/08/16 02:24:10;;;;;;;7.80;2.70;;;18.60;99.90;;;;;;4160008;28;20382;-72
2021/08/16 02:26:10;;;;;;;9.32;2.83;;;18.70;99.90;;;;;;4157086;28;20203;-72
2021/08/16 02:28:15;;;;;;;9.10;2.85;;;18.60;99.90;;;;;;4154527;28;20072;-72
2021/08/16 02:30:17;;;;;;;7.88;2.65;;;18.50;99.90;;;;;;4152535;28;20724;-73
2021/08/16 02:32:18;;;;;;;7.43;2.60;;;18.60;99.90;;;;;;4151747;28;20593;-73
2021/08/16 02:34:19;;;;;;;6.97;2.65;;;18.60;99.90;;;;;;4156828;28;20056;-72
2021/08/16 02:36:19;;;;;;;8.30;2.70;;;18.60;99.90;;;;;;4159057;28;20037;-72
2021/08/16 02:38:20;;;;;;;9.25;3.30;;;18.60;99.90;;;;;;4138507;28;20103;-72
2021/08/16 02:40:20;;;;;;;7.70;2.90;;;18.50;99.90;;;;;;4173324;28;20033;-73
2021/08/16 02:42:21;;;;;;;6.93;3.17;;;18.60;99.90;;;;;;4159449;28;20045;-73
2021/08/16 02:44:21;;;;;;;5.65;2.47;;;18.50;99.90;;;;;;4156374;28;20041;-73
2021/08/16 02:46:22;;;;;;;5.30;2.92;;;18.50;99.90;;;;;;4158495;28;20046;-73
2021/08/16 02:48:23;;;;;;;5.38;2.22;;;18.50;99.90;;;;;;4159082;28;20043;-73
2021/08/16 02:50:23;;;;;;;9.80;3.10;;;18.50;99.90;;;;;;4149587;28;20034;-73
2021/08/16 02:52:24;;;;;;;11.68;2.63;;;18.40;99.90;;;;;;4152799;28;20033;-73
2021/08/16 02:54:25;;;;;;;11.50;3.25;;;18.40;99.90;;;;;;4158280;28;20112;-72
2021/08/16 02:56:25;;;;;;;7.40;2.85;;;18.30;99.90;;;;;;4154528;28;20037;-73
2021/08/16 02:58:26;;;;;;;9.32;2.97;;;18.40;99.90;;;;;;4155263;28;20089;-72
2021/08/16 03:00:26;;;;;;;11.38;3.15;;;18.40;99.90;;;;;;4159490;28;20502;-72
2021/08/16 03:02:27;;;;;;;6.38;2.30;;;18.50;99.90;;;;;;4158452;28;20442;-73
2021/08/16 03:04:27;;;;;;;6.38;2.67;;;18.40;99.90;;;;;;4157720;28;20416;-73
2021/08/16 03:06:28;;;;;;;9.05;2.90;;;18.40;99.90;;;;;;4156803;28;20501;-73
2021/08/16 03:08:29;;;;;;;9.00;3.15;;;18.40;99.90;;;;;;4159102;28;20034;-73
2021/08/16 03:10:30;;;;;;;7.53;2.55;;;18.30;99.90;;;;;;4154508;28;20425;-73
2021/08/16 03:12:31;;;;;;;8.02;2.80;;;18.30;99.90;;;;;;4156098;28;20444;-73
2021/08/16 03:14:31;;;;;;;9.25;3.20;;;18.30;99.90;;;;;;4155255;28;20035;-72
2021/08/16 03:16:32;;;;;;;10.13;2.47;;;18.30;99.90;;;;;;4151270;28;20038;-72
2021/08/16 03:18:33;;;;;;;11.15;2.45;;;18.30;99.90;;;;;;4154806;28;20037;-73
2021/08/16 03:20:35;;;;;;;7.70;2.40;;;18.30;99.90;;;;;;4147058;28;20446;-72
2021/08/16 03:22:36;;;;;;;8.80;2.93;;;18.40;99.90;;;;;;4147009;28;20096;-72
2021/08/16 03:24:37;;;;;;;8.55;2.58;;;18.30;99.90;;;;;;4141097;28;20088;-72
2021/08/16 03:26:37;;;;;;;9.10;3.03;;;18.30;99.90;;;;;;4140637;28;20427;-72
2021/08/16 03:28:38;;;;;;;12.57;3.22;;;18.30;99.90;;;;;;4141222;28;20164;-73
2021/08/16 03:30:38;;;;;;;6.25;2.60;;;18.30;99.90;;;;;;4139798;28;20491;-72
2021/08/16 03:32:39;;;;;;;8.60;2.92;;;18.20;99.90;;;;;;4139966;28;20483;-73
2021/08/16 03:34:40;;;;;;;10.07;2.80;;;18.30;99.90;;;;;;4141645;28;20041;-73
2021/08/16 03:36:41;;;;;;;10.20;3.03;;;18.30;99.90;;;;;;4141828;28;20458;-73
2021/08/16 03:38:42;;;;;;;8.70;3.53;;;18.30;99.90;;;;;;4148441;28;20041;-72
2021/08/16 03:40:42;;;;;;;7.88;3.10;;;18.30;99.90;;;;;;4162600;28;20086;-73
2021/08/16 03:42:43;;;;;;;7.95;3.13;;;18.40;99.90;;;;;;4151719;28;20034;-73
2021/08/16 03:44:43;;;;;;;11.30;3.50;;;18.30;99.90;;;;;;4155646;28;20045;-73
2021/08/16 03:46:44;;;;;;;12.45;3.85;;;18.20;99.90;;;;;;4156225;28;20056;-72
2021/08/16 03:48:44;;;;;;;9.40;3.08;;;18.20;99.90;;;;;;4150420;28;20683;-73
2021/08/16 03:50:45;;;;;;;8.13;3.10;;;18.20;99.90;;;;;;4157008;28;20469;-73
2021/08/16 03:52:46;;;;;;;10.95;3.30;;;18.30;99.90;;;;;;4155590;28;20734;-72
2021/08/16 03:54:46;;;;;;;7.03;2.80;;;18.30;99.90;;;;;;4169498;28;20527;-73
2021/08/16 03:56:47;;;;;;;8.35;3.10;;;18.30;99.90;;;;;;4154732;28;20041;-72
2021/08/16 03:58:48;;;;;;;8.32;3.33;;;18.30;99.90;;;;;;4165609;28;20112;-72
2021/08/16 04:00:49;;;;;;;10.70;3.63;;;18.40;99.90;;;;;;4159319;28;20044;-73
2021/08/16 04:02:49;;;;;;;9.82;3.42;;;18.30;99.90;;;;;;4159401;28;20033;-73
2021/08/16 04:04:50;;;;;;;8.30;3.45;;;18.30;99.90;;;;;;4159836;28;20030;-73
2021/08/16 04:06:52;;;;;;;11.68;4.10;;;18.20;99.90;;;;;;4162820;28;20029;-72
2021/08/16 04:08:53;;;;;;;14.63;4.22;;;18.20;99.90;;;;;;4132139;28;20447;-72
2021/08/16 04:10:53;;;;;;;8.02;3.15;;;18.10;99.90;;;;;;4158657;28;20046;-73
2021/08/16 04:12:54;;;;;;;9.07;3.83;;;18.20;99.90;;;;;;4161287;28;20034;-72
2021/08/16 04:14:54;;;;;;;10.43;3.50;;;18.20;99.90;;;;;;4136872;28;20038;-72
2021/08/16 04:16:55;;;;;;;9.38;3.15;;;18.20;99.90;;;;;;4156725;28;20052;-72
2021/08/16 04:18:55;;;;;;;12.13;3.50;;;18.20;99.90;;;;;;4159983;28;20038;-72
2021/08/16 04:20:57;;;;;;;11.50;3.83;;;18.30;99.90;;;;;;4159658;28;20095;-73
2021/08/16 04:22:57;;;;;;;10.30;3.60;;;18.30;99.90;;;;;;4154140;28;20632;-72
2021/08/16 04:24:59;;;;;;;10.43;3.60;;;18.30;99.90;;;;;;4154085;28;20087;-72
2021/08/16 04:26:59;;;;;;;10.98;4.18;;;18.20;99.90;;;;;;4155277;28;20079;-72
2021/08/16 04:29:00;;;;;;;9.00;3.10;;;18.30;99.90;;;;;;4160998;28;20057;-73
2021/08/16 04:31:00;;;;;;;10.13;3.58;;;18.30;99.90;;;;;;4143550;28;20038;-73
2021/08/16 04:33:01;;;;;;;12.73;3.75;;;18.30;99.90;;;;;;4156167;28;20234;-72
2021/08/16 04:35:02;;;;;;;10.35;3.70;;;18.30;99.90;;;;;;4143950;28;20426;-73
2021/08/16 04:37:03;;;;;;;15.13;4.15;;;18.30;99.90;;;;;;4161289;28;20037;-73
2021/08/16 04:39:04;;;;;;;9.35;3.40;;;18.20;99.90;;;;;;4152441;28;20497;-73
2021/08/16 04:41:04;;;;;;;11.93;3.78;;;18.20;99.90;;;;;;4160962;28;20033;-72
2021/08/16 04:43:05;;;;;;;9.50;3.35;;;18.20;99.90;;;;;;4160968;28;20041;-72
2021/08/16 04:45:07;;;;;;;13.35;4.05;;;18.10;99.90;;;;;;4160763;28;20048;-73
2021/08/16 04:47:08;;;;;;;11.85;3.33;;;18.10;99.90;;;;;;4159447;28;20030;-72
2021/08/16 04:49:08;;;;;;;9.77;3.13;;;18.10;99.90;;;;;;4160992;28;20037;-72
2021/08/16 04:51:09;;;;;;;9.93;3.65;;;18.10;99.90;;;;;;4161396;28;20064;-73
2021/08/16 04:53:10;;;;;;;7.43;2.80;;;18.10;99.90;;;;;;4161011;28;20029;-72
2021/08/16 04:55:11;;;;;;;7.50;3.08;;;18.10;99.90;;;;;;4156364;28;20566;-72
2021/08/16 04:57:11;;;;;;;7.88;3.47;;;18.10;99.90;;;;;;4158039;28;20081;-73
2021/08/16 04:59:12;;;;;;;10.63;3.92;;;18.10;99.90;;;;;;4148367;28;20525;-72
2021/08/16 05:01:13;;;;;;;12.10;3.58;;;18.00;99.90;;;;;;4154193;28;20030;-72
2021/08/16 05:03:13;;;;;;;8.35;2.97;;;18.00;99.90;;;;;;4155157;28;20033;-72
2021/08/16 05:05:14;;;;;;;7.97;2.95;;;18.10;99.90;;;;;;4150944;28;20037;-72
2021/08/16 05:07:15;;;;;;;9.18;3.40;;;18.10;99.90;;;;;;4160659;28;20044;-72
2021/08/16 05:09:15;;;;;;;12.07;3.58;;;18.10;99.90;;;;;;4150220;28;20041;-72
2021/08/16 05:11:16;;;;;;;6.60;2.47;;;18.10;99.90;;;;;;4149074;28;20502;-72
2021/08/16 05:13:16;;;;;;;10.95;2.95;;;18.10;99.90;;;;;;4160444;28;20048;-72
2021/08/16 05:15:18;;;;;;;7.55;2.67;;;18.00;99.90;;;;;;4154990;28;20562;-73
2021/08/16 05:17:19;;;;;;;12.00;3.35;;;18.00;99.90;;;;;;4160894;28;20042;-72
2021/08/16 05:19:20;;;;;;;14.35;3.42;;;18.00;99.90;;;;;;4149645;28;20049;-72
2021/08/16 05:21:21;;;;;;;15.18;3.33;;;17.90;99.90;;;;;;4149739;28;20033;-72
2021/08/16 05:23:22;;;;;;;8.80;3.25;;;17.90;99.90;;;;;;4145644;28;20041;-72
2021/08/16 05:25:22;;;;;;;12.05;2.95;;;18.00;99.90;;;;;;4153928;28;20056;-72
2021/08/16 05:27:23;;;;;;;8.95;2.78;;;18.00;99.90;;;;;;4150873;28;20466;-73
2021/08/16 05:29:24;;;;;;;13.27;3.60;;;18.00;99.90;;;;;;4149746;28;20026;-72
2021/08/16 05:31:25;;;;;;;7.78;2.80;;;18.00;99.90;;;;;;4148685;28;20042;-72
2021/08/16 05:33:26;;;;;;;6.00;2.47;;;18.00;99.90;;;;;;4146285;28;20497;-72
2021/08/16 05:35:26;;;;;;;9.75;3.03;;;18.00;99.90;;;;;;4151552;28;20041;-73
2021/08/16 05:37:27;;;;;;;8.52;3.30;;;18.00;99.90;;;;;;4150946;28;20041;-73
2021/08/16 05:39:27;;;;;;;13.15;3.58;;;18.00;99.90;;;;;;4145555;28;20036;-73
2021/08/16 05:41:28;;;;;;;9.02;3.10;;;18.00;99.90;;;;;;4144656;28;20030;-71
2021/08/16 05:43:28;;;;;;;8.75;3.30;;;18.00;99.90;;;;;;4150440;28;20036;-71
2021/08/16 05:45:29;;;;;;;9.60;3.05;;;18.00;99.90;;;;;;4147478;28;20048;-71
2021/08/16 05:47:31;;;;;;;9.43;3.28;;;18.00;99.90;;;;;;4152946;28;21270;-71
2021/08/16 05:49:32;;;;;;;7.72;2.97;;;18.00;99.90;;;;;;4154697;28;20401;-71
2021/08/16 05:51:32;;;;;;;12.68;3.50;;;18.00;99.90;;;;;;4153056;28;20297;-71
2021/08/16 05:53:33;;;;;;;8.70;3.33;;;18.00;99.90;;;;;;4146215;28;20490;-71
2021/08/16 05:55:34;;;;;;;9.68;3.67;;;18.00;99.90;;;;;;4151693;28;20149;-71
2021/08/16 05:57:34;;;;;;;8.02;3.10;;;18.00;99.90;;;;;;4147398;28;20517;-71
2021/08/16 05:59:35;;;;;;;12.43;3.42;;;18.00;99.90;;;;;;4151296;28;20037;-71
2021/08/16 06:01:39;;;;;;;7.25;2.65;;;18.00;99.90;;;;;;4153473;28;20053;-71
2021/08/16 06:03:39;;;;;;;12.02;3.50;;;18.00;99.90;;;;;;4150777;28;20034;-71
2021/08/16 06:05:40;;;;;;;9.70;3.15;;;18.10;99.90;;;;;;4150350;28;20040;-71
2021/08/16 06:07:41;;;;;;;9.25;3.17;;;18.10;99.90;;;;;;4137380;28;20414;-71
2021/08/16 06:09:41;;;;;;;13.15;3.53;;;18.00;99.90;;;;;;4135400;28;20301;-71
2021/08/16 06:11:42;;;;;;;10.40;3.05;;;18.00;99.90;;;;;;4137661;28;20113;-71
2021/08/16 06:13:42;;;;;;;7.47;2.88;;;18.00;99.90;;;;;;4152412;28;20075;-71
2021/08/16 06:15:43;;;;;;;11.68;3.30;;;18.00;99.90;;;;;;4152085;28;20037;-71
2021/08/16 06:17:43;;;;;;;8.05;2.90;;;18.00;99.90;;;;;;4147188;28;20132;-71
2021/08/16 06:19:44;;;;;;;10.85;3.08;;;18.00;99.90;;;;;;4135332;28;20092;-71
2021/08/16 06:21:45;;;;;;;7.97;3.10;;;18.00;99.90;;;;;;4135235;28;20040;-71
2021/08/16 06:23:46;;;;;;;6.85;2.60;;;18.00;99.90;;;;;;4137024;28;20030;-71
2021/08/16 06:25:46;;;;;;;13.65;3.10;;;18.00;99.90;;;;;;4135766;28;20112;-71
2021/08/16 06:27:47;;;;;;;9.10;2.72;;;18.00;99.90;;;;;;4136609;28;20057;-71
2021/08/16 06:29:47;;;;;;;7.85;2.97;;;18.00;99.90;;;;;;4135323;28;20030;-71
2021/08/16 06:31:48;;;;;;;6.20;2.40;;;18.00;99.90;;;;;;4136551;28;20344;-71
2021/08/16 06:33:49;;;;;;;11.48;2.60;;;18.10;99.90;;;;;;4138216;28;20038;-71
2021/08/16 06:35:50;;;;;;;9.27;2.83;;;18.10;99.90;;;;;;4136875;28;20050;-71
2021/08/16 06:37:51;;;;;;;6.93;2.63;;;18.10;99.90;;;;;;4137182;28;20033;-71
2021/08/16 06:39:52;;;;;;;8.43;2.42;;;18.10;99.90;;;;;;4136733;28;20037;-71
2021/08/16 06:41:54;;;;;;;10.25;3.30;;;18.20;99.90;;;;;;4137452;28;20088;-71
2021/08/16 06:43:55;;;;;;;8.30;2.67;;;18.30;99.90;;;;;;4137103;28;20084;-71
2021/08/16 06:45:55;;;;;;;7.03;2.50;;;18.30;99.90;;;;;;4135594;28;20049;-71
2021/08/16 06:47:56;;;;;;;10.75;2.70;;;18.30;99.90;;;;;;4136945;28;20120;-71
2021/08/16 06:49:56;;;;;;;13.25;3.42;;;18.30;99.90;;;;;;4136868;28;20041;-71
2021/08/16 06:51:57;;;;;;;17.13;3.78;;;18.30;99.90;;;;;;4138093;28;20197;-71
2021/08/16 06:53:58;;;;;;;5.75;2.90;;;18.40;99.90;;;;;;4135849;28;20049;-71
2021/08/16 06:55:58;;;;;;;13.50;3.38;;;18.40;99.90;;;;;;4135690;28;20121;-71
2021/08/16 06:57:59;;;;;;;14.35;3.53;;;18.40;99.90;;;;;;4136520;28;20371;-71
2021/08/16 06:59:59;;;;;;;8.80;3.20;;;18.40;99.90;;;;;;4152934;28;20064;-71
2021/08/16 07:02:00;;;;;;;9.10;2.65;;;18.40;99.90;;;;;;4148217;28;20105;-71
2021/08/16 07:04:01;;;;;;;10.85;3.17;;;18.50;99.90;;;;;;4137423;28;20201;-71
2021/08/16 07:06:01;;;;;;;6.70;2.13;;;18.60;99.90;;;;;;4134867;28;20524;-71
2021/08/16 07:08:02;;;;;;;6.10;2.70;;;18.60;99.90;;;;;;4139982;28;20042;-71
2021/08/16 07:10:03;;;;;;;13.80;2.85;;;18.60;99.90;;;;;;4143297;28;20092;-71
2021/08/16 07:12:04;;;;;;;9.07;2.80;;;18.70;99.90;;;;;;4152861;28;20049;-71
2021/08/16 07:14:05;;;;;;;9.20;3.22;;;18.70;99.90;;;;;;4151808;28;20076;-71
2021/08/16 07:16:06;;;;;;;10.38;2.80;;;18.70;99.90;;;;;;4141442;28;20042;-71
2021/08/16 07:18:07;;;;;;;7.95;2.55;;;18.80;99.90;;;;;;4117322;28;20049;-71
2021/08/16 07:20:09;;;;;;;7.13;2.60;;;18.90;99.90;;;;;;4144908;28;20395;-71
2021/08/16 07:22:10;;;;;;;9.32;2.80;;;18.90;99.90;;;;;;4153424;28;20044;-71
2021/08/16 07:24:11;;;;;;;5.75;2.45;;;18.90;99.90;;;;;;4140258;28;20470;-71
2021/08/16 07:26:11;;;;;;;9.65;2.78;;;18.80;99.90;;;;;;4148545;28;20496;-71
2021/08/16 07:28:12;;;;;;;8.70;2.90;;;18.80;99.90;;;;;;4152126;28;20417;-71
2021/08/16 07:30:13;;;;;;;8.13;2.35;;;18.70;99.90;;;;;;4121024;28;20038;-71
2021/08/16 07:32:14;;;;;;;10.82;3.10;;;18.80;99.90;;;;;;4143252;28;20038;-71
2021/08/16 07:34:14;;;;;;;7.30;2.75;;;18.60;99.90;;;;;;4144881;28;20057;-71
2021/08/16 07:36:15;;;;;;;8.60;2.75;;;18.60;99.90;;;;;;4146186;28;20052;-71
2021/08/16 07:38:16;;;;;;;10.65;2.75;;;18.70;99.90;;;;;;4149830;28;20088;-73
2021/08/16 07:40:17;;;;;;;8.45;2.88;;;18.70;99.90;;;;;;4149878;28;20429;-71
2021/08/16 07:42:20;;;;;;;7.47;2.78;;;18.70;99.90;;;;;;4155708;28;20394;-71
2021/08/16 07:44:20;;;;;;;;;;;18.70;99.90;;;;;;4157093;28;20258;-71
2021/08/16 07:46:21;;;;;;;6.85;2.70;;;18.70;99.90;;;;;;4155677;28;19917;-71
2021/08/16 07:48:21;;;;;;;12.98;3.50;;;18.80;99.90;;;;;;4156210;28;20036;-71
2021/08/16 07:50:23;;;;;;;6.47;2.85;;;18.80;99.90;;;;;;4154638;28;20433;-71
2021/08/16 07:52:23;;;;;;;8.82;3.10;;;18.80;99.90;;;;;;4158274;28;20025;-71
2021/08/16 07:54:24;;;;;;;6.18;3.05;;;18.80;99.90;;;;;;4145055;28;20490;-71
2021/08/16 07:56:25;;;;;;;10.20;3.15;;;18.90;99.90;;;;;;4151277;28;20033;-71
2021/08/16 07:58:27;;;;;;;9.60;3.05;;;18.90;99.90;;;;;;4157907;28;20032;-71
2021/08/16 08:00:27;;;;;;;9.07;2.60;;;18.90;99.90;;;;;;4156800;28;20048;-71
2021/08/16 08:02:57;;;;;;;9.00;3.53;;;18.90;99.90;;;;;;4143541;28;20034;-71
2021/08/16 08:05:03;;;;;;;7.30;2.85;;;18.80;99.90;;;;;;4144627;28;20124;-71
2021/08/16 08:07:04;;;;;;;8.80;2.78;;;18.80;99.90;;;;;;4154858;28;20051;-71
2021/08/16 08:09:05;;;;;;;5.60;2.90;;;18.90;99.90;;;;;;4155030;28;20057;-71
2021/08/16 08:11:06;;;;;;;8.52;2.60;;;18.90;99.90;;;;;;4147263;28;20038;-71
2021/08/16 08:13:06;;;;;;;9.23;3.20;;;18.90;99.90;;;;;;4151983;28;20098;-71
2021/08/16 08:15:08;;;;;;;7.30;2.60;;;18.90;99.90;;;;;;4157462;28;21307;-71
2021/08/16 08:17:09;;;;;;;10.38;2.63;;;18.90;99.90;;;;;;4143230;28;20486;-71
2021/08/16 08:19:09;;;;;;;6.55;2.42;;;18.80;99.90;;;;;;4145879;28;20061;-71
2021/08/16 08:21:10;;;;;;;10.38;2.90;;;18.90;99.90;;;;;;4156392;28;20048;-71
2021/08/16 08:23:11;;;;;;;6.65;2.63;;;18.90;99.90;;;;;;4157298;28;20040;-71
2021/08/16 08:25:12;;;;;;;7.18;3.10;;;19.00;99.90;;;;;;4147715;28;20051;-71
2021/08/16 08:27:13;;;;;;;9.50;2.90;;;18.90;99.90;;;;;;4150724;28;20045;-71
2021/08/16 08:29:13;;;;;;;9.50;3.47;;;18.90;99.90;;;;;;4155227;28;20095;-71
2021/08/16 08:31:14;;;;;;;9.38;3.40;;;18.90;99.90;;;;;;4150642;28;20046;-71
2021/08/16 08:33:18;;;;;;;9.15;2.97;;;18.90;99.90;;;;;;4157513;28;20046;-71
2021/08/16 08:35:19;;;;;;;8.00;3.28;;;18.90;99.90;;;;;;4154480;28;20678;-71
2021/08/16 08:37:20;;;;;;;8.63;2.50;;;18.90;99.90;;;;;;4155646;28;20410;-71
2021/08/16 08:39:20;;;;;;;9.48;2.80;;;19.00;99.90;;;;;;4144494;28;20041;-71
2021/08/16 08:41:22;;;;;;;8.18;3.05;;;19.00;99.90;;;;;;4150047;28;20038;-74
2021/08/16 08:43:23;;;;;;;13.05;2.95;;;19.00;99.90;;;;;;4152068;28;20393;-70
2021/08/16 08:45:26;;;;;;;8.80;3.00;;;19.00;99.90;;;;;;4149854;28;20057;-71
2021/08/16 08:47:27;;;;;;;6.55;2.53;;;19.00;99.90;;;;;;4145209;28;20451;-71
2021/08/16 08:49:28;;;;;;;8.52;2.88;;;19.00;99.90;;;;;;4155827;28;20117;-71
2021/08/16 08:51:28;;;;;;;9.77;2.97;;;19.10;99.90;;;;;;4155142;28;20033;-71
2021/08/16 08:53:29;;;;;;;7.63;2.50;;;19.00;99.90;;;;;;4157159;28;20042;-71
2021/08/16 08:55:30;;;;;;;7.57;2.75;;;19.00;99.90;;;;;;4154316;28;20428;-71
2021/08/16 08:57:31;;;;;;;7.38;2.97;;;19.00;99.90;;;;;;4148919;28;20084;-71
2021/08/16 08:59:32;;;;;;;6.10;2.45;;;19.10;99.90;;;;;;4155415;28;20042;-71
2021/08/16 09:01:32;;;;;;;3.80;2.30;;;19.00;99.90;;;;;;4157113;28;20478;-71
2021/08/16 09:03:33;;;;;;;8.10;3.13;;;19.00;99.90;;;;;;4155744;28;20041;-71
2021/08/16 09:05:50;;;;;;;5.70;2.45;;;19.10;99.90;;;;;;4155608;28;20041;-71
2021/08/16 09:07:50;;;;;;;6.28;2.58;;;19.10;99.90;;;;;;4157091;28;20388;-71
2021/08/16 09:09:54;;;;;;;4.97;2.45;;;19.10;99.90;;;;;;4155291;28;20121;-71
2021/08/16 09:11:54;;;;;;;11.02;3.55;;;19.10;99.90;;;;;;4155090;28;20113;-71
2021/08/16 09:13:58;;;;;;;11.02;3.35;;;19.10;99.90;;;;;;4155510;28;20053;-71
2021/08/16 09:16:10;;;;;;;14.00;2.72;;;19.10;99.90;;;;;;4154982;28;20053;-71
2021/08/16 09:18:11;;;;;;;5.70;2.47;;;19.10;99.90;;;;;;4145079;28;20556;-71
2021/08/16 09:20:15;;;;;;;10.90;3.08;;;19.00;99.90;;;;;;4141460;28;20133;-71
2021/08/16 09:22:24;;;;;;;9.45;3.42;;;19.00;99.90;;;;;;4138858;28;20160;-71
2021/08/16 09:24:26;;;;;;;7.80;2.80;;;18.80;99.90;;;;;;4137495;28;20132;-70
2021/08/16 09:26:29;;;;;;;5.38;2.42;;;18.90;99.90;;;;;;4143309;28;20772;-70
2021/08/16 09:28:32;;;;;;;7.60;2.85;;;18.90;99.90;;;;;;4156473;28;20478;-71
2021/08/16 09:30:34;;;;;;;;;;;18.90;99.90;;;;;;4148330;28;20116;-70
2021/08/16 09:32:35;;;;;;;9.65;2.72;;;18.80;99.90;;;;;;4151309;28;19913;-71
2021/08/16 09:34:44;;;;;;;8.65;2.92;;;18.90;99.90;;;;;;4139946;28;20033;-71
2021/08/16 09:36:45;;;;;;;7.28;2.72;;;18.90;99.90;;;;;;4155218;28;20592;-71
2021/08/16 09:38:45;;;;;;;9.10;2.90;;;18.90;99.90;;;;;;4157025;28;20102;-71
2021/08/16 09:40:46;;;;;;;6.15;2.75;;;18.80;99.90;;;;;;4157005;28;20049;-70
2021/08/16 09:42:50;;;;;;;4.82;2.53;;;18.80;99.90;;;;;;4156075;28;20095;-70
2021/08/16 09:44:53;;;;;;;10.13;3.00;;;18.80;99.90;;;;;;4149162;28;20038;-70
2021/08/16 09:47:03;;;;;;;9.50;2.45;;;18.80;99.90;;;;;;4149252;28;20079;-70
2021/08/16 09:49:05;;;;;;;5.43;2.10;;;18.70;99.90;;;;;;4150967;28;20431;-71
2021/08/16 09:51:06;;;;;;;3.83;1.83;;;18.60;99.90;;;;;;4155895;28;20044;-71
2021/08/16 09:53:18;;;;;;;4.25;2.08;;;18.50;99.90;;;;;;4151202;28;20161;-70
2021/08/16 09:55:19;;;;;;;3.87;1.67;;;18.50;99.90;;;;;;4154129;28;20083;-70
2021/08/16 09:57:20;;;;;;;3.80;1.75;;;18.50;99.90;;;;;;4146823;28;20278;-71
2021/08/16 09:59:21;;;;;;;4.30;2.17;;;18.50;99.90;;;;;;4156688;28;20052;-71
2021/08/16 10:01:22;;;;;;;5.40;1.40;;;18.40;99.90;;;;;;4155971;28;20068;-71
2021/08/16 10:03:25;;;;;;;4.00;1.42;;;18.40;99.90;;;;;;4149792;28;20054;-70
2021/08/16 10:05:27;;;;;;;3.30;1.77;;;18.50;99.90;;;;;;4137919;28;20042;-71
2021/08/16 10:07:28;;;;;;;4.47;2.03;;;18.50;99.90;;;;;;4137285;28;20560;-71
2021/08/16 10:09:29;;;;;;;7.43;2.33;;;18.00;99.90;;;;;;4154956;28;20326;-70
2021/08/16 10:11:30;;;;;;;5.05;2.38;;;17.70;99.90;;;;;;4154553;28;20052;-70
2021/08/16 10:13:37;;;;;;;5.40;2.10;;;17.60;99.90;;;;;;4154680;28;20026;-70
2021/08/16 10:15:47;;;;;;;5.53;2.03;;;17.50;99.90;;;;;;4145620;28;20137;-70
2021/08/16 10:17:48;;;;;;;4.82;2.00;;;17.50;99.90;;;;;;4156074;28;21253;-70
2021/08/16 10:19:52;;;;;;;11.05;2.28;;;17.50;99.90;;;;;;4156290;28;20040;-70
2021/08/16 10:21:59;;;;;;;6.53;2.55;;;17.50;99.90;;;;;;4154690;28;20064;-70
2021/08/16 10:23:59;;;;;;;4.82;2.20;;;17.50;99.90;;;;;;4150334;28;20056;-70
2021/08/16 10:26:00;;;;;;;5.25;2.33;;;17.50;99.90;;;;;;4141617;28;20034;-70
2021/08/16 10:28:02;;;;;;;4.68;2.35;;;17.60;99.90;;;;;;4147093;28;20030;-70
2021/08/16 10:30:11;;;;;;;8.07;2.40;;;17.60;99.90;;;;;;4143538;28;20037;-70